createdAt,value
2018-11-02T00:01:28.888Z,95.10
2018-11-02T00:03:05.072Z,95.00
2018-11-02T00:04:39.972Z,95.10
2018-11-02T00:06:14.888Z,95.10
2018-11-02T00:08:04.653Z,95.10
2018-11-02T00:09:54.443Z,95.00
2018-11-02T00:11:29.349Z,95.00
2018-11-02T00:13:04.309Z,95.00
2018-11-02T00:14:39.211Z,95.00
2018-11-02T00:16:14.121Z,95.10
2018-11-02T00:17:49.095Z,95.00
2018-11-02T00:19:29.415Z,95.00
2018-11-02T00:21:04.518Z,95.00
2018-11-02T00:22:39.391Z,95.00
2018-11-02T00:24:14.311Z,95.10
2018-11-02T00:25:49.383Z,95.10
2018-11-02T00:27:24.344Z,95.00
2018-11-02T00:28:59.272Z,95.00
2018-11-02T00:30:34.159Z,95.00
2018-11-02T00:32:09.204Z,95.00
2018-11-02T00:33:44.167Z,95.00
2018-11-02T00:35:19.018Z,95.00
2018-11-02T00:36:54.067Z,95.00
2018-11-02T00:38:29.099Z,95.00
2018-11-02T00:40:04.004Z,95.10
2018-11-02T00:41:39.092Z,95.20
2018-11-02T00:43:14.024Z,95.10
2018-11-02T00:44:48.979Z,95.10
2018-11-02T00:46:23.922Z,95.20
2018-11-02T00:47:58.800Z,95.50
2018-11-02T00:49:33.760Z,95.50
2018-11-02T00:51:08.655Z,95.40
2018-11-02T00:52:44.533Z,95.40
2018-11-02T00:54:19.535Z,95.40
2018-11-02T00:55:54.411Z,95.40
2018-11-02T00:57:29.343Z,95.40
2018-11-02T00:59:04.367Z,95.40
2018-11-02T01:00:39.304Z,95.40
2018-11-02T01:02:14.238Z,95.40
2018-11-02T01:03:49.224Z,95.40
2018-11-02T01:05:24.237Z,95.40
2018-11-02T01:06:59.188Z,95.40
2018-11-02T01:08:34.117Z,95.30
2018-11-02T01:10:09.011Z,95.30
2018-11-02T01:11:44.080Z,95.30
2018-11-02T01:13:18.960Z,95.30
2018-11-02T01:14:53.835Z,95.30
2018-11-02T01:16:28.831Z,95.40
2018-11-02T01:18:03.763Z,95.40
2018-11-02T01:19:38.726Z,95.40
2018-11-02T01:21:13.612Z,95.40
2018-11-02T01:22:48.503Z,95.30
2018-11-02T01:24:23.588Z,95.40
2018-11-02T01:25:58.471Z,95.30
2018-11-02T01:27:33.395Z,95.30
2018-11-02T01:29:08.344Z,95.30
2018-11-02T01:30:43.274Z,95.30
2018-11-02T01:32:18.174Z,95.30
2018-11-02T01:33:53.079Z,95.30
2018-11-02T01:35:28.007Z,95.30
2018-11-02T01:37:02.894Z,95.30
2018-11-02T01:38:38.006Z,95.30
2018-11-02T01:40:13.309Z,95.30
2018-11-02T01:41:48.334Z,95.30
2018-11-02T01:43:23.330Z,95.40
2018-11-02T01:44:58.261Z,95.50
2018-11-02T01:46:33.160Z,95.60
2018-11-02T01:48:08.070Z,95.60
2018-11-02T01:49:43.039Z,95.50
2018-11-02T01:51:17.947Z,95.50
2018-11-02T01:52:52.824Z,95.50
2018-11-02T01:54:27.762Z,95.50
2018-11-02T01:56:04.442Z,95.50
2018-11-02T01:57:39.322Z,95.50
2018-11-02T01:59:14.371Z,95.70
2018-11-02T02:00:49.310Z,95.70
2018-11-02T02:02:24.224Z,95.70
2018-11-02T02:03:59.115Z,95.70
2018-11-02T02:05:34.101Z,95.60
2018-11-02T02:07:08.996Z,95.60
2018-11-02T02:08:44.022Z,95.50
2018-11-02T02:10:18.954Z,95.50
2018-11-02T02:11:53.930Z,95.50
2018-11-02T02:13:28.798Z,95.50
2018-11-02T02:15:03.828Z,95.50
2018-11-02T02:16:38.755Z,95.60
2018-11-02T02:18:13.640Z,95.60
2018-11-02T02:19:48.652Z,95.70
2018-11-02T02:21:23.599Z,95.60
2018-11-02T02:22:58.516Z,95.70
2018-11-02T02:24:33.480Z,95.70
2018-11-02T02:26:08.402Z,95.70
2018-11-02T02:27:43.337Z,95.60
2018-11-02T02:29:18.255Z,95.60
2018-11-02T02:30:53.168Z,95.70
2018-11-02T02:32:28.050Z,95.70
2018-11-02T02:34:03.036Z,95.70
2018-11-02T02:35:38.059Z,95.70
2018-11-02T02:37:12.956Z,95.70
2018-11-02T02:38:47.978Z,95.60
2018-11-02T02:40:22.863Z,95.60
2018-11-02T02:41:57.754Z,95.60
2018-11-02T02:43:32.622Z,95.60
2018-11-02T02:45:08.291Z,95.50
2018-11-02T02:46:43.187Z,95.70
2018-11-02T02:48:18.082Z,95.70
2018-11-02T02:49:53.079Z,95.90
2018-11-02T02:51:28.089Z,96.00
2018-11-02T02:53:03.008Z,95.90
2018-11-02T02:54:37.982Z,95.90
2018-11-02T02:56:12.850Z,96.00
2018-11-02T02:57:47.795Z,96.00
2018-11-02T02:59:22.674Z,95.90
2018-11-02T03:00:57.558Z,95.90
2018-11-02T03:02:32.634Z,95.90
2018-11-02T03:04:07.498Z,95.80
2018-11-02T03:05:42.536Z,95.80
2018-11-02T03:07:17.555Z,95.80
2018-11-02T03:08:52.444Z,96.20
2018-11-02T03:10:27.422Z,95.80
2018-11-02T03:12:02.241Z,95.80
2018-11-02T03:13:37.180Z,95.90
2018-11-02T03:15:12.014Z,95.80
2018-11-02T03:16:46.888Z,95.80
2018-11-02T03:18:21.815Z,95.80
2018-11-02T03:19:56.818Z,95.70
2018-11-02T03:21:31.706Z,95.70
2018-11-02T03:23:06.592Z,95.80
2018-11-02T03:24:41.499Z,95.80
2018-11-02T03:26:16.353Z,95.80
2018-11-02T03:27:51.233Z,95.80
2018-11-02T03:29:26.107Z,95.80
2018-11-02T03:31:01.014Z,95.80
2018-11-02T03:32:35.900Z,95.80
2018-11-02T03:34:10.844Z,95.80
2018-11-02T03:35:45.769Z,95.70
2018-11-02T03:37:20.699Z,95.70
2018-11-02T03:38:55.562Z,95.70
2018-11-02T03:40:30.630Z,95.70
2018-11-02T03:42:06.371Z,95.80
2018-11-02T03:43:41.259Z,95.90
2018-11-02T03:45:16.178Z,95.60
2018-11-02T03:46:51.085Z,95.90
2018-11-02T03:48:25.966Z,95.90
2018-11-02T03:50:01.102Z,95.90
2018-11-02T03:51:36.082Z,95.90
2018-11-02T03:53:10.990Z,95.80
2018-11-02T03:54:45.909Z,95.80
2018-11-02T03:56:20.853Z,95.80
2018-11-02T03:57:55.783Z,95.80
2018-11-02T03:59:30.663Z,95.80
2018-11-02T04:01:05.880Z,95.90
2018-11-02T04:02:40.844Z,95.90
2018-11-02T04:04:15.792Z,96.20
2018-11-02T04:05:50.744Z,95.80
2018-11-02T04:07:25.712Z,95.80
2018-11-02T04:09:00.648Z,95.80
2018-11-02T04:10:35.528Z,96.00
2018-11-02T04:12:10.402Z,96.30
2018-11-02T04:13:45.543Z,96.30
2018-11-02T04:15:20.564Z,96.20
2018-11-02T04:16:55.430Z,96.30
2018-11-02T04:18:30.720Z,96.10
2018-11-02T04:20:06.832Z,96.00
2018-11-02T04:21:46.516Z,96.00
2018-11-02T04:23:21.390Z,96.00
2018-11-02T04:24:56.264Z,96.00
2018-11-02T04:26:31.149Z,96.00
2018-11-02T04:28:06.349Z,95.90
2018-11-02T04:29:41.238Z,95.90
2018-11-02T04:31:16.180Z,95.90
2018-11-02T04:32:51.081Z,95.90
2018-11-02T04:34:25.947Z,95.90
2018-11-02T04:36:00.830Z,96.00
2018-11-02T04:37:35.710Z,96.20
2018-11-02T04:39:12.314Z,96.20
2018-11-02T04:40:47.187Z,96.20
2018-11-02T04:42:22.187Z,96.20
2018-11-02T04:43:57.265Z,96.10
2018-11-02T04:45:38.266Z,96.10
2018-11-02T04:47:13.215Z,96.00
2018-11-02T04:48:48.095Z,95.90
2018-11-02T04:50:23.004Z,95.90
2018-11-02T04:51:57.899Z,95.80
2018-11-02T04:53:32.867Z,96.20
2018-11-02T04:55:07.813Z,95.80
2018-11-02T04:56:42.712Z,95.80
2018-11-02T04:58:17.662Z,95.70
2018-11-02T04:59:52.574Z,95.70
2018-11-02T05:01:27.548Z,95.60
2018-11-02T05:03:03.087Z,95.60
2018-11-02T05:04:38.001Z,95.60
2018-11-02T05:06:14.226Z,95.60
2018-11-02T05:07:49.459Z,95.60
2018-11-02T05:09:26.808Z,95.60
2018-11-02T05:11:02.210Z,95.60
2018-11-02T05:12:41.238Z,95.60
2018-11-02T05:14:17.458Z,95.60
2018-11-02T05:15:52.409Z,95.60
2018-11-02T05:17:27.324Z,95.60
2018-11-02T05:19:02.247Z,95.60
2018-11-02T05:20:37.145Z,95.60
2018-11-02T05:22:12.115Z,95.60
2018-11-02T05:23:46.976Z,95.60
2018-11-02T05:25:21.874Z,95.50
2018-11-02T05:26:56.796Z,95.60
2018-11-02T05:28:31.766Z,95.60
2018-11-02T05:30:07.852Z,95.80
2018-11-02T05:31:42.871Z,96.10
2018-11-02T05:33:17.783Z,95.90
2018-11-02T05:34:52.735Z,95.80
2018-11-02T05:36:27.615Z,95.90
2018-11-02T05:38:02.575Z,95.80
2018-11-02T05:39:37.561Z,95.80
2018-11-02T05:41:12.339Z,95.80
2018-11-02T05:42:47.370Z,95.80
2018-11-02T05:44:22.236Z,95.80
2018-11-02T05:45:57.180Z,95.70
2018-11-02T05:47:32.091Z,95.60
2018-11-02T05:49:07.082Z,95.70
2018-11-02T05:50:42.062Z,95.60
2018-11-02T05:52:17.155Z,95.70
2018-11-02T05:53:52.204Z,95.80
2018-11-02T05:55:27.158Z,95.80
2018-11-02T05:57:02.211Z,95.80
2018-11-02T05:58:37.182Z,95.80
2018-11-02T06:00:12.667Z,95.70
2018-11-02T06:01:47.694Z,95.70
2018-11-02T06:03:22.761Z,95.60
2018-11-02T06:04:58.347Z,95.70
2018-11-02T06:06:33.235Z,95.60
2018-11-02T06:08:08.121Z,95.60
2018-11-02T06:09:43.042Z,95.60
2018-11-02T06:11:17.922Z,95.60
2018-11-02T06:12:52.814Z,95.60
2018-11-02T06:14:27.719Z,95.60
2018-11-02T06:16:02.623Z,95.60
2018-11-02T06:17:37.545Z,95.60
2018-11-02T06:19:12.438Z,95.50
2018-11-02T06:20:47.301Z,95.60
2018-11-02T06:22:22.257Z,95.60
2018-11-02T06:23:57.182Z,95.60
2018-11-02T06:25:32.069Z,95.70
2018-11-02T06:27:07.023Z,95.70
2018-11-02T06:28:42.047Z,95.70
2018-11-02T06:30:16.923Z,95.70
2018-11-02T06:31:51.799Z,95.80
2018-11-02T06:33:26.823Z,95.70
2018-11-02T06:35:01.748Z,95.60
2018-11-02T06:36:36.950Z,95.60
2018-11-02T06:38:11.925Z,95.50
2018-11-02T06:39:46.834Z,95.40
2018-11-02T06:41:21.758Z,95.40
2018-11-02T06:42:56.667Z,95.40
2018-11-02T06:44:31.607Z,95.30
2018-11-02T06:46:06.786Z,95.20
2018-11-02T06:47:41.759Z,95.30
2018-11-02T06:49:16.756Z,95.30
2018-11-02T06:50:51.672Z,95.20
2018-11-02T06:52:26.511Z,95.20
2018-11-02T06:54:01.396Z,95.20
2018-11-02T06:55:36.254Z,95.60
2018-11-02T06:57:11.297Z,95.30
2018-11-02T06:58:46.126Z,95.30
2018-11-02T07:00:21.104Z,95.30
2018-11-02T07:01:55.955Z,95.30
2018-11-02T07:03:30.851Z,95.40
2018-11-02T07:05:05.947Z,95.40
2018-11-02T07:06:40.959Z,95.50
2018-11-02T07:08:15.940Z,95.50
2018-11-02T07:09:50.806Z,95.50
2018-11-02T07:11:25.684Z,95.50
2018-11-02T07:13:00.746Z,95.40
2018-11-02T07:14:35.627Z,95.40
2018-11-02T07:16:10.628Z,95.50
2018-11-02T07:17:45.566Z,95.50
2018-11-02T07:19:20.541Z,95.50
2018-11-02T07:20:55.406Z,95.50
2018-11-02T07:22:30.367Z,95.50
2018-11-02T07:24:05.238Z,95.50
2018-11-02T07:25:40.117Z,95.60
2018-11-02T07:27:15.207Z,95.50
2018-11-02T07:28:50.157Z,95.50
2018-11-02T07:30:25.026Z,95.50
2018-11-02T07:31:59.939Z,95.30
2018-11-02T07:33:34.850Z,95.40
2018-11-02T07:35:10.603Z,95.30
2018-11-02T07:36:45.539Z,95.20
2018-11-02T07:38:20.592Z,95.10
2018-11-02T07:39:55.505Z,95.00
2018-11-02T07:41:30.577Z,94.90
2018-11-02T07:43:05.527Z,94.90
2018-11-02T07:44:40.463Z,95.10
2018-11-02T07:46:15.494Z,95.20
2018-11-02T07:47:50.649Z,94.80
2018-11-02T07:49:25.694Z,95.10
2018-11-02T07:51:00.668Z,94.80
2018-11-02T07:52:35.642Z,94.60
2018-11-02T07:54:10.631Z,94.70
2018-11-02T07:55:45.550Z,94.50
2018-11-02T07:57:20.570Z,94.50
2018-11-02T07:58:55.638Z,94.50
2018-11-02T08:00:30.532Z,94.30
2018-11-02T08:02:05.615Z,94.40
2018-11-02T08:03:40.566Z,94.20
2018-11-02T08:05:16.033Z,94.30
2018-11-02T08:06:51.104Z,94.20
2018-11-02T08:08:26.030Z,94.20
2018-11-02T08:10:01.016Z,94.00
2018-11-02T08:11:36.372Z,93.90
2018-11-02T08:13:11.851Z,93.80
2018-11-02T08:14:46.914Z,93.90
2018-11-02T08:16:21.815Z,93.90
2018-11-02T08:17:57.029Z,93.70
2018-11-02T08:19:32.044Z,93.80
2018-11-02T08:21:06.891Z,93.70
2018-11-02T08:22:42.670Z,93.90
2018-11-02T08:24:17.643Z,93.80
2018-11-02T08:25:52.552Z,94.00
2018-11-02T08:27:27.536Z,93.90
2018-11-02T08:29:02.546Z,94.10
2018-11-02T08:30:37.539Z,93.80
2018-11-02T08:32:12.629Z,93.60
2018-11-02T08:33:47.536Z,93.10
2018-11-02T08:35:22.486Z,92.90
2018-11-02T08:36:57.449Z,92.70
2018-11-02T08:38:32.358Z,92.80
2018-11-02T08:40:08.187Z,92.90
2018-11-02T08:41:43.110Z,92.40
2018-11-02T08:43:18.007Z,92.10
2018-11-02T08:44:52.891Z,91.20
2018-11-02T08:46:28.375Z,91.20
2018-11-02T08:48:03.232Z,91.70
2018-11-02T08:49:38.176Z,91.40
2018-11-02T08:51:13.051Z,91.00
2018-11-02T08:52:47.971Z,90.60
2018-11-02T08:54:22.915Z,90.80
2018-11-02T08:55:57.867Z,90.90
2018-11-02T08:57:32.763Z,90.90
2018-11-02T08:59:07.845Z,90.70
2018-11-02T09:00:42.678Z,88.10
2018-11-02T09:02:17.586Z,85.20
2018-11-02T09:03:52.718Z,88.70
2018-11-02T09:05:27.645Z,89.20
2018-11-02T09:07:02.621Z,89.90
2018-11-02T09:08:37.515Z,89.80
2018-11-02T09:10:12.865Z,89.50
2018-11-02T09:11:47.768Z,89.10
2018-11-02T09:13:22.676Z,88.20
2018-11-02T09:14:57.581Z,87.20
2018-11-02T09:16:32.582Z,87.80
2018-11-02T09:18:07.663Z,88.90
2018-11-02T09:19:42.663Z,87.50
2018-11-02T09:21:17.563Z,85.70
2018-11-02T09:22:52.647Z,88.60
2018-11-02T09:24:27.575Z,86.70
2018-11-02T09:26:02.512Z,86.70
2018-11-02T09:27:37.467Z,83.50
2018-11-02T09:29:12.342Z,84.40
2018-11-02T09:30:47.422Z,85.00
2018-11-02T09:32:22.384Z,83.70
2018-11-02T09:33:57.394Z,85.40
2018-11-02T09:35:32.375Z,85.50
2018-11-02T09:37:07.312Z,83.70
2018-11-02T09:38:42.267Z,85.30
2018-11-02T09:40:17.264Z,78.80
2018-11-02T09:41:52.113Z,83.80
2018-11-02T09:43:27.318Z,82.00
2018-11-02T09:45:02.308Z,83.10
2018-11-02T09:46:37.506Z,84.00
2018-11-02T09:48:12.467Z,84.10
2018-11-02T09:49:47.727Z,83.90
2018-11-02T09:51:22.870Z,82.70
2018-11-02T09:52:57.715Z,82.80
2018-11-02T09:54:32.639Z,83.00
2018-11-02T09:56:07.527Z,80.60
2018-11-02T09:57:43.302Z,82.90
2018-11-02T09:59:18.214Z,84.80
2018-11-02T10:00:53.281Z,81.90
2018-11-02T10:02:28.177Z,80.60
2018-11-02T10:04:03.087Z,82.60
2018-11-02T10:05:38.063Z,81.60
2018-11-02T10:07:13.079Z,82.90
2018-11-02T10:08:48.090Z,80.50
2018-11-02T10:10:23.018Z,80.50
2018-11-02T10:11:57.986Z,80.10
2018-11-02T10:13:32.878Z,81.60
2018-11-02T10:15:10.281Z,81.10
2018-11-02T10:16:45.295Z,81.80
2018-11-02T10:18:20.204Z,79.80
2018-11-02T10:19:55.133Z,80.70
2018-11-02T10:21:30.072Z,79.70
2018-11-02T10:23:05.142Z,80.90
2018-11-02T10:24:40.028Z,80.40
2018-11-02T10:26:14.978Z,80.60
2018-11-02T10:27:50.021Z,80.50
2018-11-02T10:29:24.951Z,76.60
2018-11-02T10:30:59.967Z,77.80
2018-11-02T10:32:34.911Z,77.30
2018-11-02T10:34:09.834Z,77.00
2018-11-02T10:35:44.908Z,76.00
2018-11-02T10:37:19.766Z,76.90
2018-11-02T10:38:55.291Z,75.80
2018-11-02T10:40:32.210Z,77.90
2018-11-02T10:42:08.926Z,78.80
2018-11-02T10:43:43.843Z,76.80
2018-11-02T10:45:18.869Z,74.90
2018-11-02T10:46:53.874Z,75.90
2018-11-02T10:48:29.823Z,76.90
2018-11-02T10:50:05.210Z,76.90
2018-11-02T10:51:40.204Z,75.90
2018-11-02T10:53:16.179Z,74.70
2018-11-02T10:54:51.186Z,75.30
2018-11-02T10:56:26.344Z,74.60
2018-11-02T10:58:01.290Z,77.20
2018-11-02T10:59:36.193Z,75.00
2018-11-02T11:01:16.512Z,75.20
2018-11-02T11:02:51.439Z,75.40
2018-11-02T11:04:26.349Z,76.50
2018-11-02T11:06:01.302Z,74.70
2018-11-02T11:07:36.250Z,73.80
2018-11-02T11:09:12.588Z,74.50
2018-11-02T11:10:47.708Z,75.40
2018-11-02T11:12:22.779Z,75.20
2018-11-02T11:13:57.671Z,73.20
2018-11-02T11:15:32.795Z,72.80
2018-11-02T11:17:07.720Z,74.60
2018-11-02T11:18:42.621Z,74.80
2018-11-02T11:20:17.640Z,74.80
2018-11-02T11:21:52.626Z,76.90
2018-11-02T11:23:27.543Z,75.40
2018-11-02T11:25:02.690Z,77.00
2018-11-02T11:26:38.334Z,75.60
2018-11-02T11:28:13.295Z,75.30
2018-11-02T11:29:48.509Z,75.80
2018-11-02T11:31:23.682Z,76.10
2018-11-02T11:32:58.604Z,76.30
2018-11-02T11:34:33.674Z,76.40
2018-11-02T11:36:08.907Z,77.10
2018-11-02T11:37:48.083Z,77.30
2018-11-02T11:39:23.381Z,76.50
2018-11-02T11:40:58.306Z,77.30
2018-11-02T11:42:33.192Z,76.80
2018-11-02T11:44:08.726Z,77.20
2018-11-02T11:45:43.925Z,77.30
2018-11-02T11:47:18.972Z,77.30
2018-11-02T11:48:54.151Z,77.30
2018-11-02T11:50:29.011Z,77.90
2018-11-02T11:52:04.236Z,78.10
2018-11-02T11:53:39.351Z,79.10
2018-11-02T11:55:15.472Z,78.40
2018-11-02T11:56:50.572Z,78.60
2018-11-02T11:58:25.451Z,78.70
2018-11-02T12:00:00.379Z,79.10
2018-11-02T12:01:35.379Z,79.40
2018-11-02T12:03:10.287Z,79.40
2018-11-02T12:04:45.602Z,79.60
2018-11-02T12:06:20.460Z,79.70
2018-11-02T12:07:55.481Z,80.40
2018-11-02T12:09:30.434Z,80.60
2018-11-02T12:11:05.841Z,80.50
2018-11-02T12:12:40.712Z,80.80
2018-11-02T12:14:15.675Z,80.50
2018-11-02T12:15:50.693Z,80.90
2018-11-02T12:17:25.687Z,80.90
2018-11-02T12:19:00.645Z,81.10
2018-11-02T12:20:35.559Z,80.80
2018-11-02T12:22:10.497Z,81.00
2018-11-02T12:23:45.460Z,80.50
2018-11-02T12:25:20.366Z,80.40
2018-11-02T12:26:55.286Z,80.20
2018-11-02T12:28:30.274Z,80.20
2018-11-02T12:30:05.508Z,79.60
2018-11-02T12:31:40.414Z,79.50
2018-11-02T12:33:15.323Z,79.60
2018-11-02T12:34:50.274Z,79.50
2018-11-02T12:36:25.294Z,79.00
2018-11-02T12:38:00.198Z,79.10
2018-11-02T12:39:35.107Z,79.30
2018-11-02T12:41:09.999Z,78.60
2018-11-02T12:42:45.920Z,79.40
2018-11-02T12:44:21.129Z,78.80
2018-11-02T12:45:56.049Z,78.30
2018-11-02T12:47:31.008Z,78.60
2018-11-02T12:49:06.384Z,79.00
2018-11-02T12:50:41.177Z,79.10
2018-11-02T12:52:16.143Z,79.10
2018-11-02T12:53:51.047Z,79.30
2018-11-02T12:55:25.998Z,79.30
2018-11-02T12:57:01.186Z,79.10
2018-11-02T12:58:36.132Z,78.60
2018-11-02T13:00:16.193Z,79.00
2018-11-02T13:01:51.123Z,78.50
2018-11-02T13:03:26.071Z,78.20
2018-11-02T13:05:00.983Z,78.60
2018-11-02T13:06:35.936Z,78.40
2018-11-02T13:08:10.852Z,78.60
2018-11-02T13:09:45.827Z,78.70
2018-11-02T13:11:20.705Z,78.70
2018-11-02T13:12:55.782Z,78.40
2018-11-02T13:14:30.743Z,78.70
2018-11-02T13:16:05.772Z,78.70
2018-11-02T13:17:41.315Z,78.30
2018-11-02T13:19:16.547Z,77.90
2018-11-02T13:20:51.634Z,77.30
2018-11-02T13:22:26.671Z,77.30
2018-11-02T13:24:02.439Z,77.40
2018-11-02T13:25:37.766Z,77.50
2018-11-02T13:27:12.631Z,77.50
2018-11-02T13:28:47.655Z,77.80
2018-11-02T13:30:22.648Z,78.10
2018-11-02T13:31:57.742Z,78.10
2018-11-02T13:33:32.828Z,78.30
2018-11-02T13:35:09.957Z,78.40
2018-11-02T13:36:45.109Z,78.50
2018-11-02T13:38:19.959Z,78.30
2018-11-02T13:39:54.815Z,78.30
2018-11-02T13:41:29.979Z,78.00
2018-11-02T13:43:05.292Z,78.20
2018-11-02T13:44:40.182Z,78.50
2018-11-02T13:46:15.307Z,78.90
2018-11-02T13:47:50.252Z,78.90
2018-11-02T13:49:25.242Z,79.00
2018-11-02T13:51:00.147Z,79.10
2018-11-02T13:52:35.183Z,79.40
2018-11-02T13:54:10.223Z,79.80
2018-11-02T13:55:45.158Z,79.40
2018-11-02T13:57:20.074Z,79.50
2018-11-02T13:58:55.111Z,79.50
2018-11-02T14:00:29.902Z,79.80
2018-11-02T14:02:05.248Z,79.60
2018-11-02T14:03:40.253Z,79.50
2018-11-02T14:05:16.337Z,79.50
2018-11-02T14:06:51.251Z,79.40
2018-11-02T14:08:26.220Z,79.60
2018-11-02T14:10:01.151Z,79.60
2018-11-02T14:11:36.384Z,79.20
2018-11-02T14:13:11.964Z,79.50
2018-11-02T14:14:48.063Z,80.00
2018-11-02T14:16:22.952Z,79.80
2018-11-02T14:17:58.074Z,79.70
2018-11-02T14:19:32.946Z,80.20
2018-11-02T14:21:07.811Z,80.00
2018-11-02T14:22:42.753Z,80.40
2018-11-02T14:24:17.682Z,80.00
2018-11-02T14:25:52.711Z,80.10
2018-11-02T14:27:27.673Z,80.30
2018-11-02T14:29:02.627Z,80.60
2018-11-02T14:30:37.594Z,80.70
2018-11-02T14:32:12.526Z,80.50
2018-11-02T14:33:47.572Z,80.60
2018-11-02T14:35:22.530Z,81.00
2018-11-02T14:36:57.423Z,81.10
2018-11-02T14:38:32.439Z,81.10
2018-11-02T14:40:08.449Z,81.40
2018-11-02T14:41:44.523Z,81.00
2018-11-02T14:43:19.520Z,81.30
2018-11-02T14:44:54.494Z,81.50
2018-11-02T14:46:29.615Z,81.30
2018-11-02T14:48:04.559Z,81.80
2018-11-02T14:49:39.434Z,81.80
2018-11-02T14:51:14.359Z,81.60
2018-11-02T14:52:49.232Z,81.20
2018-11-02T14:54:24.231Z,81.90
2018-11-02T14:55:59.120Z,81.60
2018-11-02T14:57:34.043Z,81.50
2018-11-02T14:59:09.068Z,81.80
2018-11-02T15:00:44.221Z,82.30
2018-11-02T15:02:19.196Z,82.40
2018-11-02T15:03:54.126Z,82.60
2018-11-02T15:05:29.179Z,82.30
2018-11-02T15:07:04.399Z,82.80
2018-11-02T15:08:39.305Z,82.80
2018-11-02T15:10:14.227Z,82.90
2018-11-02T15:11:49.194Z,83.50
2018-11-02T15:13:24.232Z,83.10
2018-11-02T15:14:59.128Z,82.80
2018-11-02T15:16:34.242Z,83.20
2018-11-02T15:18:09.155Z,83.80
2018-11-02T15:19:44.738Z,84.00
2018-11-02T15:21:19.641Z,84.20
2018-11-02T15:22:54.559Z,84.70
2018-11-02T15:24:29.475Z,84.00
2018-11-02T15:26:04.387Z,85.00
2018-11-02T15:27:39.322Z,85.90
2018-11-02T15:29:14.294Z,86.80
2018-11-02T15:30:49.356Z,87.00
2018-11-02T15:32:24.403Z,87.00
2018-11-02T15:33:59.480Z,87.30
2018-11-02T15:35:34.463Z,86.30
2018-11-02T15:37:09.365Z,87.30
2018-11-02T15:38:44.315Z,87.10
2018-11-02T15:40:19.226Z,87.70
2018-11-02T15:41:54.126Z,87.20
2018-11-02T15:43:28.999Z,87.40
2018-11-02T15:45:04.244Z,87.60
2018-11-02T15:46:39.139Z,87.70
2018-11-02T15:48:14.197Z,88.80
2018-11-02T15:49:49.199Z,88.00
2018-11-02T15:51:24.333Z,88.10
2018-11-02T15:52:59.257Z,88.60
2018-11-02T15:54:34.141Z,88.70
2018-11-02T15:56:09.060Z,88.90
2018-11-02T15:57:43.952Z,89.50
2018-11-02T15:59:19.013Z,89.70
2018-11-02T16:00:54.011Z,89.70
2018-11-02T16:02:28.904Z,89.50
2018-11-02T16:04:03.944Z,90.00
2018-11-02T16:05:38.861Z,90.10
2018-11-02T16:07:13.828Z,90.00
2018-11-02T16:08:48.705Z,90.10
2018-11-02T16:10:23.690Z,90.20
2018-11-02T16:11:58.649Z,90.40
2018-11-02T16:13:33.603Z,90.60
2018-11-02T16:15:09.178Z,90.20
2018-11-02T16:16:44.071Z,90.30
2018-11-02T16:18:18.973Z,90.40
2018-11-02T16:19:53.903Z,90.70
2018-11-02T16:21:28.786Z,91.10
2018-11-02T16:23:03.683Z,91.60
2018-11-02T16:24:38.614Z,91.80
2018-11-02T16:26:13.498Z,91.20
2018-11-02T16:27:48.451Z,91.10
2018-11-02T16:29:23.440Z,91.30
2018-11-02T16:30:58.379Z,91.60
2018-11-02T16:32:33.331Z,91.30
2018-11-02T16:34:08.332Z,91.40
2018-11-02T16:35:43.201Z,91.40
2018-11-02T16:37:18.178Z,91.60
2018-11-02T16:38:53.214Z,91.50
2018-11-02T16:40:28.127Z,91.80
2018-11-02T16:42:03.039Z,91.90
2018-11-02T16:43:38.108Z,91.70
2018-11-02T16:45:13.811Z,91.80
2018-11-02T16:46:48.769Z,91.90
2018-11-02T16:48:23.668Z,92.10
2018-11-02T16:49:58.624Z,92.10
2018-11-02T16:51:33.544Z,92.00
2018-11-02T16:53:08.514Z,92.00
2018-11-02T16:54:43.579Z,92.00
2018-11-02T16:56:18.347Z,92.30
2018-11-02T16:57:53.430Z,92.00
2018-11-02T16:59:28.394Z,92.60
2018-11-02T17:01:03.305Z,92.30
2018-11-02T17:02:38.342Z,92.70
2018-11-02T17:04:13.270Z,92.50
2018-11-02T17:05:48.317Z,92.60
2018-11-02T17:07:23.185Z,92.30
2018-11-02T17:08:58.065Z,92.50
2018-11-02T17:10:33.009Z,92.40
2018-11-02T17:12:07.897Z,92.40
2018-11-02T17:13:42.850Z,92.40
2018-11-02T17:15:17.795Z,92.40
2018-11-02T17:16:52.741Z,92.50
2018-11-02T17:18:27.737Z,92.70
2018-11-02T17:20:07.589Z,92.60
2018-11-02T17:21:42.645Z,92.70
2018-11-02T17:23:17.494Z,92.40
2018-11-02T17:24:52.559Z,92.60
2018-11-02T17:26:27.473Z,92.70
2018-11-02T17:28:02.395Z,92.60
2018-11-02T17:29:37.303Z,92.50
2018-11-02T17:31:12.211Z,92.60
2018-11-02T17:32:47.132Z,92.70
2018-11-02T17:34:22.017Z,92.60
2018-11-02T17:35:57.092Z,92.70
2018-11-02T17:37:32.012Z,92.70
2018-11-02T17:39:09.461Z,92.80
2018-11-02T17:40:44.409Z,92.80
2018-11-02T17:42:19.473Z,92.70
2018-11-02T17:43:54.333Z,92.80
2018-11-02T17:45:29.303Z,92.90
2018-11-02T17:47:04.229Z,92.80
2018-11-02T17:48:39.107Z,92.90
2018-11-02T17:50:14.887Z,92.80
2018-11-02T17:51:49.922Z,92.90
2018-11-02T17:53:24.873Z,93.00
2018-11-02T17:54:59.740Z,93.20
2018-11-02T17:56:34.655Z,93.10
2018-11-02T17:58:09.557Z,93.30
2018-11-02T17:59:44.513Z,93.70
2018-11-02T18:01:19.514Z,93.80
2018-11-02T18:02:55.424Z,93.70
2018-11-02T18:04:30.270Z,93.60
2018-11-02T18:06:05.247Z,93.70
2018-11-02T18:07:40.062Z,93.70
2018-11-02T18:09:14.950Z,93.70
2018-11-02T18:10:49.959Z,93.70
2018-11-02T18:12:24.986Z,93.60
2018-11-02T18:13:59.865Z,93.70
2018-11-02T18:15:34.845Z,93.50
2018-11-02T18:17:09.756Z,93.50
2018-11-02T18:18:44.690Z,93.40
2018-11-02T18:20:19.586Z,93.50
2018-11-02T18:21:57.421Z,93.60
2018-11-02T18:23:33.053Z,93.80
2018-11-02T18:25:12.438Z,93.90
2018-11-02T18:26:47.710Z,93.80
2018-11-02T18:28:22.830Z,93.90
2018-11-02T18:29:57.850Z,94.00
2018-11-02T18:31:32.759Z,94.10
2018-11-02T18:33:07.887Z,94.00
2018-11-02T18:34:42.978Z,94.00
2018-11-02T18:36:24.501Z,94.10
2018-11-02T18:37:59.435Z,94.00
2018-11-02T18:39:34.302Z,94.20
2018-11-02T18:41:09.201Z,94.20
2018-11-02T18:42:44.537Z,94.20
2018-11-02T18:44:19.458Z,94.20
2018-11-02T18:45:54.404Z,94.20
2018-11-02T18:47:34.785Z,94.20
2018-11-02T18:49:11.255Z,94.30
2018-11-02T18:50:46.187Z,94.30
2018-11-02T18:52:21.226Z,94.40
2018-11-02T18:53:56.095Z,94.30
2018-11-02T18:55:31.009Z,94.50
2018-11-02T18:57:06.243Z,94.60
2018-11-02T18:58:41.143Z,94.90
2018-11-02T19:00:16.348Z,94.80
2018-11-02T19:03:35.859Z,94.70
2018-11-02T19:05:14.790Z,94.80
2018-11-02T19:06:49.819Z,94.80
2018-11-02T19:08:24.722Z,95.20
2018-11-02T19:09:59.686Z,95.20
2018-11-02T19:11:34.623Z,94.90
2018-11-02T19:13:09.645Z,94.90
2018-11-02T19:14:44.548Z,94.80
2018-11-02T19:16:19.866Z,94.90
2018-11-02T19:17:55.613Z,94.90
2018-11-02T19:19:30.605Z,94.90
2018-11-02T19:21:05.741Z,95.00
2018-11-02T19:22:40.671Z,94.90
2018-11-02T19:24:15.638Z,95.00
2018-11-02T19:25:50.746Z,95.00
2018-11-02T19:27:25.791Z,95.00
2018-11-02T19:29:00.707Z,94.90
2018-11-02T19:30:35.701Z,94.90
2018-11-02T19:32:10.688Z,95.00
2018-11-02T19:33:45.618Z,95.00
2018-11-02T19:35:20.700Z,95.10
2018-11-02T19:36:55.583Z,95.40
2018-11-02T19:38:30.597Z,95.50
2018-11-02T19:40:07.356Z,95.50
2018-11-02T19:41:42.270Z,95.70
2018-11-02T19:43:17.180Z,95.50
2018-11-02T19:44:52.064Z,95.50
2018-11-02T19:46:27.106Z,95.40
2018-11-02T19:48:03.363Z,95.40
2018-11-02T19:49:38.256Z,95.40
2018-11-02T19:51:13.153Z,95.40
2018-11-02T19:52:48.055Z,95.90
2018-11-02T19:54:22.953Z,95.40
2018-11-02T19:55:57.962Z,95.40
2018-11-02T19:57:32.822Z,95.40
2018-11-02T19:59:07.672Z,95.40
2018-11-02T20:00:42.706Z,95.40
2018-11-02T20:02:18.005Z,95.40
2018-11-02T20:03:53.125Z,95.40
2018-11-02T20:05:28.075Z,95.50
2018-11-02T20:07:03.040Z,95.60
2018-11-02T20:08:38.324Z,95.40
2018-11-02T20:10:14.044Z,95.90
2018-11-02T20:11:53.635Z,95.60
2018-11-02T20:13:28.683Z,95.60
2018-11-02T20:15:05.882Z,95.50
2018-11-02T20:16:40.751Z,95.50
2018-11-02T20:18:15.722Z,95.60
2018-11-02T20:19:50.823Z,95.80
2018-11-02T20:21:28.675Z,96.00
2018-11-02T20:23:03.650Z,95.60
2018-11-02T20:24:38.670Z,95.60
2018-11-02T20:26:13.650Z,95.60
2018-11-02T20:27:48.925Z,95.50